sensor_id;sensor_type;location;lat;lon;timestamp;temperature;humidity
480;DHT22;226;48.606;9.096;2024-01-27T07:34:12;-0.80;85.30
480;DHT22;226;48.606;9.096;2024-01-27T07:36:42;-0.90;69.30
480;DHT22;226;48.606;9.096;2024-01-27T07:39:10;-1.10;71.30
480;DHT22;226;48.606;9.096;2024-01-27T07:41:39;-1.10;72.20
480;DHT22;226;48.606;9.096;2024-01-27T07:44:07;-0.30;71.90
480;DHT22;226;48.606;9.096;2024-01-27T07:46:37;-1.10;73.30
480;DHT22;226;48.606;9.096;2024-01-27T07:49:05;-0.70;74.10
480;DHT22;226;48.606;9.096;2024-01-27T07:51:33;-1.20;72.30
480;DHT22;226;48.606;9.096;2024-01-27T07:54:03;-1.10;63.00
480;DHT22;226;48.606;9.096;2024-01-27T07:56:31;-1.20;63.40
480;DHT22;226;48.606;9.096;2024-01-27T07:58:59;-1.10;64.30
480;DHT22;226;48.606;9.096;2024-01-27T08:01:27;-1.20;64.70
480;DHT22;226;48.606;9.096;2024-01-27T08:03:56;-1.20;65.40
480;DHT22;226;48.606;9.096;2024-01-27T08:06:28;-0.70;65.80
480;DHT22;226;48.606;9.096;2024-01-27T08:08:56;-0.10;68.40
480;DHT22;226;48.606;9.096;2024-01-27T08:11:26;-0.40;66.80
480;DHT22;226;48.606;9.096;2024-01-27T08:13:57;-0.90;68.00
480;DHT22;226;48.606;9.096;2024-01-27T08:16:25;-0.80;67.50
480;DHT22;226;48.606;9.096;2024-01-27T08:18:53;-2.30;64.90
480;DHT22;226;48.606;9.096;2024-01-27T08:21:21;-0.70;66.90
480;DHT22;226;48.606;9.096;2024-01-27T08:23:50;-0.70;67.40
480;DHT22;226;48.606;9.096;2024-01-27T08:26:18;-0.60;67.30
480;DHT22;226;48.606;9.096;2024-01-27T08:28:48;-0.10;66.60
480;DHT22;226;48.606;9.096;2024-01-27T08:31:17;-0.60;66.90
480;DHT22;226;48.606;9.096;2024-01-27T08:33:45;-0.60;66.80
480;DHT22;226;48.606;9.096;2024-01-27T08:36:14;-0.10;68.20
480;DHT22;226;48.606;9.096;2024-01-27T08:38:42;1.10;68.10
480;DHT22;226;48.606;9.096;2024-01-27T08:41:10;0.20;67.90
480;DHT22;226;48.606;9.096;2024-01-27T08:43:38;0.20;69.60
480;DHT22;226;48.606;9.096;2024-01-27T08:46:08;-0.20;69.00
480;DHT22;226;48.606;9.096;2024-01-27T08:48:39;0.30;70.50
480;DHT22;226;48.606;9.096;2024-01-27T08:51:08;-0.20;71.20
480;DHT22;226;48.606;9.096;2024-01-27T08:53:37;0.80;71.30
480;DHT22;226;48.606;9.096;2024-01-27T08:56:05;0.80;71.60
480;DHT22;226;48.606;9.096;2024-01-27T08:58:33;0.10;69.70
480;DHT22;226;48.606;9.096;2024-01-27T09:01:02;0.00;70.60
480;DHT22;226;48.606;9.096;2024-01-27T09:03:34;0.10;72.10
480;DHT22;226;48.606;9.096;2024-01-27T09:06:04;1.00;73.30
480;DHT22;226;48.606;9.096;2024-01-27T09:08:33;0.20;69.40
480;DHT22;226;48.606;9.096;2024-01-27T09:11:05;0.20;69.30
480;DHT22;226;48.606;9.096;2024-01-27T09:13:33;0.40;70.40
480;DHT22;226;48.606;9.096;2024-01-27T09:16:01;0.50;70.50
480;DHT22;226;48.606;9.096;2024-01-27T09:18:30;0.60;70.90
480;DHT22;226;48.606;9.096;2024-01-27T09:21:00;1.30;73.50
480;DHT22;226;48.606;9.096;2024-01-27T09:23:28;1.90;72.40
480;DHT22;226;48.606;9.096;2024-01-27T09:25:56;0.40;71.10
480;DHT22;226;48.606;9.096;2024-01-27T09:28:25;0.80;73.10
480;DHT22;226;48.606;9.096;2024-01-27T09:30:54;1.50;74.30
480;DHT22;226;48.606;9.096;2024-01-27T09:33:22;0.90;75.30
480;DHT22;226;48.606;9.096;2024-01-27T09:35:50;0.40;75.40
480;DHT22;226;48.606;9.096;2024-01-27T09:38:20;1.40;77.50
480;DHT22;226;48.606;9.096;2024-01-27T09:40:48;1.70;79.00
480;DHT22;226;48.606;9.096;2024-01-27T09:43:18;1.80;77.90
480;DHT22;226;48.606;9.096;2024-01-27T09:45:47;2.10;77.10
480;DHT22;226;48.606;9.096;2024-01-27T09:48:15;2.70;76.00
480;DHT22;226;48.606;9.096;2024-01-27T09:50:45;2.10;74.40
480;DHT22;226;48.606;9.096;2024-01-27T09:53:13;2.20;72.90
480;DHT22;226;48.606;9.096;2024-01-27T09:55:43;2.40;71.70
480;DHT22;226;48.606;9.096;2024-01-27T09:58:12;2.60;68.80
480;DHT22;226;48.606;9.096;2024-01-27T10:00:42;2.70;69.10
480;DHT22;226;48.606;9.096;2024-01-27T10:03:11;2.60;68.50
480;DHT22;226;48.606;9.096;2024-01-27T10:05:41;2.30;67.30
480;DHT22;226;48.606;9.096;2024-01-27T10:08:10;2.60;67.00
480;DHT22;226;48.606;9.096;2024-01-27T10:10:38;2.80;65.30
480;DHT22;226;48.606;9.096;2024-01-27T10:13:10;2.80;64.80
480;DHT22;226;48.606;9.096;2024-01-27T10:15:38;2.90;61.00
480;DHT22;226;48.606;9.096;2024-01-27T10:18:07;2.90;62.50
480;DHT22;226;48.606;9.096;2024-01-27T10:20:39;3.00;62.40
480;DHT22;226;48.606;9.096;2024-01-27T10:23:12;3.40;64.30
480;DHT22;226;48.606;9.096;2024-01-27T10:25:40;3.10;62.70
480;DHT22;226;48.606;9.096;2024-01-27T10:28:10;3.10;61.00
480;DHT22;226;48.606;9.096;2024-01-27T10:30:38;3.70;59.70
480;DHT22;226;48.606;9.096;2024-01-27T10:33:08;3.30;58.90
480;DHT22;226;48.606;9.096;2024-01-27T10:35:36;3.30;57.00
480;DHT22;226;48.606;9.096;2024-01-27T10:38:04;3.40;57.20
480;DHT22;226;48.606;9.096;2024-01-27T10:40:32;3.80;57.00
480;DHT22;226;48.606;9.096;2024-01-27T10:43:02;3.50;57.00
480;DHT22;226;48.606;9.096;2024-01-27T10:45:39;3.50;55.90
480;DHT22;226;48.606;9.096;2024-01-27T10:48:10;3.70;56.90
480;DHT22;226;48.606;9.096;2024-01-27T10:50:40;3.50;56.50
480;DHT22;226;48.606;9.096;2024-01-27T10:53:21;3.60;57.30
480;DHT22;226;48.606;9.096;2024-01-27T10:55:53;4.30;56.60
480;DHT22;226;48.606;9.096;2024-01-27T10:58:23;3.80;55.50
480;DHT22;226;48.606;9.096;2024-01-27T11:00:53;3.80;53.80
480;DHT22;226;48.606;9.096;2024-01-27T11:03:22;4.20;53.20
480;DHT22;226;48.606;9.096;2024-01-27T11:05:52;4.10;52.30
480;DHT22;226;48.606;9.096;2024-01-27T11:08:24;4.50;51.30
480;DHT22;226;48.606;9.096;2024-01-27T11:10:55;4.30;50.40
480;DHT22;226;48.606;9.096;2024-01-27T11:13:24;4.30;51.70
480;DHT22;226;48.606;9.096;2024-01-27T11:15:55;4.40;49.30
480;DHT22;226;48.606;9.096;2024-01-27T11:18:25;4.50;47.80
480;DHT22;226;48.606;9.096;2024-01-27T11:20:53;5.20;47.70
480;DHT22;226;48.606;9.096;2024-01-27T11:23:31;5.10;48.30
480;DHT22;226;48.606;9.096;2024-01-27T11:26:04;4.90;45.40
480;DHT22;226;48.606;9.096;2024-01-27T11:28:33;4.70;45.60
480;DHT22;226;48.606;9.096;2024-01-27T11:31:07;4.80;48.80
480;DHT22;226;48.606;9.096;2024-01-27T11:33:41;5.50;49.50
480;DHT22;226;48.606;9.096;2024-01-27T11:36:18;4.90;48.00
480;DHT22;226;48.606;9.096;2024-01-27T11:38:48;5.10;47.70
480;DHT22;226;48.606;9.096;2024-01-27T11:41:26;5.30;47.80
480;DHT22;226;48.606;9.096;2024-01-27T11:43:56;5.00;47.00
480;DHT22;226;48.606;9.096;2024-01-27T11:46:26;5.10;44.10
480;DHT22;226;48.606;9.096;2024-01-27T11:48:54;5.20;44.40
480;DHT22;226;48.606;9.096;2024-01-27T11:51:23;5.00;43.50
480;DHT22;226;48.606;9.096;2024-01-27T11:53:52;5.30;45.20
480;DHT22;226;48.606;9.096;2024-01-27T11:56:21;5.50;45.40
480;DHT22;226;48.606;9.096;2024-01-27T11:58:49;5.20;45.00
480;DHT22;226;48.606;9.096;2024-01-27T12:01:17;5.70;45.10
480;DHT22;226;48.606;9.096;2024-01-27T12:03:47;5.20;42.30
480;DHT22;226;48.606;9.096;2024-01-27T12:06:16;5.50;43.20
480;DHT22;226;48.606;9.096;2024-01-27T12:08:45;5.40;40.30
480;DHT22;226;48.606;9.096;2024-01-27T12:11:16;6.00;41.40
480;DHT22;226;48.606;9.096;2024-01-27T12:13:51;5.50;40.60
480;DHT22;226;48.606;9.096;2024-01-27T12:16:21;5.40;40.00
480;DHT22;226;48.606;9.096;2024-01-27T12:18:53;5.40;38.50
480;DHT22;226;48.606;9.096;2024-01-27T12:21:22;5.40;37.20
480;DHT22;226;48.606;9.096;2024-01-27T12:23:52;5.30;36.30
480;DHT22;226;48.606;9.096;2024-01-27T12:26:21;5.70;35.80
480;DHT22;226;48.606;9.096;2024-01-27T12:28:50;5.20;34.80
480;DHT22;226;48.606;9.096;2024-01-27T12:31:18;5.60;35.20
480;DHT22;226;48.606;9.096;2024-01-27T12:33:50;6.00;34.70
480;DHT22;226;48.606;9.096;2024-01-27T12:36:20;5.60;30.70
480;DHT22;226;48.606;9.096;2024-01-27T12:38:57;5.80;32.60
480;DHT22;226;48.606;9.096;2024-01-27T12:41:26;6.10;32.80
480;DHT22;226;48.606;9.096;2024-01-27T12:43:55;6.00;31.00
480;DHT22;226;48.606;9.096;2024-01-27T12:46:23;6.20;31.70
480;DHT22;226;48.606;9.096;2024-01-27T12:48:51;6.20;30.00
480;DHT22;226;48.606;9.096;2024-01-27T12:51:21;6.10;29.60
480;DHT22;226;48.606;9.096;2024-01-27T12:53:51;6.20;29.90
480;DHT22;226;48.606;9.096;2024-01-27T12:56:19;6.20;30.00
480;DHT22;226;48.606;9.096;2024-01-27T12:58:48;6.20;29.70
480;DHT22;226;48.606;9.096;2024-01-27T13:01:16;6.40;28.80
480;DHT22;226;48.606;9.096;2024-01-27T13:03:45;6.40;28.20
480;DHT22;226;48.606;9.096;2024-01-27T13:06:13;6.40;26.90
480;DHT22;226;48.606;9.096;2024-01-27T13:08:43;6.30;27.60
480;DHT22;226;48.606;9.096;2024-01-27T13:11:11;6.70;26.40
480;DHT22;226;48.606;9.096;2024-01-27T13:13:40;6.60;26.50
480;DHT22;226;48.606;9.096;2024-01-27T13:16:09;6.50;27.20
480;DHT22;226;48.606;9.096;2024-01-27T13:18:37;6.30;26.90
480;DHT22;226;48.606;9.096;2024-01-27T13:21:06;6.80;27.40
480;DHT22;226;48.606;9.096;2024-01-27T13:23:35;6.40;27.20
480;DHT22;226;48.606;9.096;2024-01-27T13:26:04;6.50;27.50
480;DHT22;226;48.606;9.096;2024-01-27T13:28:45;6.50;27.00
480;DHT22;226;48.606;9.096;2024-01-27T13:31:15;6.50;26.70
480;DHT22;226;48.606;9.096;2024-01-27T13:33:45;6.30;26.70
480;DHT22;226;48.606;9.096;2024-01-27T13:36:14;6.50;26.80
480;DHT22;226;48.606;9.096;2024-01-27T13:38:43;6.70;27.20
480;DHT22;226;48.606;9.096;2024-01-27T13:41:13;6.60;27.30
480;DHT22;226;48.606;9.096;2024-01-27T13:43:41;6.70;26.60
480;DHT22;226;48.606;9.096;2024-01-27T13:46:09;6.80;25.80
480;DHT22;226;48.606;9.096;2024-01-27T13:48:38;6.60;27.40
480;DHT22;226;48.606;9.096;2024-01-27T13:51:06;6.80;28.90
480;DHT22;226;48.606;9.096;2024-01-27T13:53:34;6.90;27.90
480;DHT22;226;48.606;9.096;2024-01-27T13:56:14;6.90;28.30
480;DHT22;226;48.606;9.096;2024-01-27T13:58:43;6.90;29.40
480;DHT22;226;48.606;9.096;2024-01-27T14:01:11;6.90;29.00
480;DHT22;226;48.606;9.096;2024-01-27T14:03:39;7.00;28.10
480;DHT22;226;48.606;9.096;2024-01-27T14:06:07;6.90;28.60
480;DHT22;226;48.606;9.096;2024-01-27T14:08:40;6.90;28.80
480;DHT22;226;48.606;9.096;2024-01-27T14:11:08;6.50;27.80
480;DHT22;226;48.606;9.096;2024-01-27T14:13:38;7.10;28.10
480;DHT22;226;48.606;9.096;2024-01-27T14:16:06;7.10;27.90
480;DHT22;226;48.606;9.096;2024-01-27T14:18:34;7.20;27.90
480;DHT22;226;48.606;9.096;2024-01-27T14:21:03;7.30;28.00
480;DHT22;226;48.606;9.096;2024-01-27T14:23:31;7.30;26.30
480;DHT22;226;48.606;9.096;2024-01-27T14:26:00;7.30;26.40
480;DHT22;226;48.606;9.096;2024-01-27T14:28:28;7.50;26.80
480;DHT22;226;48.606;9.096;2024-01-27T14:30:57;7.60;26.40
480;DHT22;226;48.606;9.096;2024-01-27T14:35:54;7.90;42.50
480;DHT22;226;48.606;9.096;2024-01-27T14:38:24;8.40;46.20
480;DHT22;226;48.606;9.096;2024-01-27T14:43:22;8.80;43.10
480;DHT22;226;48.606;9.096;2024-01-27T14:50:54;10.00;43.40
480;DHT22;226;48.606;9.096;2024-01-27T14:53:25;10.10;43.00
480;DHT22;226;48.606;9.096;2024-01-27T14:55:54;10.10;37.40
480;DHT22;226;48.606;9.096;2024-01-27T14:58:23;10.00;34.70
480;DHT22;226;48.606;9.096;2024-01-27T15:00:51;9.80;33.40
480;DHT22;226;48.606;9.096;2024-01-27T15:03:20;9.70;32.50
480;DHT22;226;48.606;9.096;2024-01-27T15:05:52;9.30;30.90
480;DHT22;226;48.606;9.096;2024-01-27T15:08:21;8.90;30.80
480;DHT22;226;48.606;9.096;2024-01-27T15:10:49;8.50;30.90
480;DHT22;226;48.606;9.096;2024-01-27T15:13:17;8.50;32.30
480;DHT22;226;48.606;9.096;2024-01-27T15:15:49;8.20;33.30
480;DHT22;226;48.606;9.096;2024-01-27T15:18:17;8.00;34.00
480;DHT22;226;48.606;9.096;2024-01-27T15:20:46;7.80;34.40
480;DHT22;226;48.606;9.096;2024-01-27T15:23:15;7.80;35.20
480;DHT22;226;48.606;9.096;2024-01-27T15:25:43;7.50;35.90
480;DHT22;226;48.606;9.096;2024-01-27T15:28:12;7.40;36.60
480;DHT22;226;48.606;9.096;2024-01-27T15:30:40;7.30;36.60
480;DHT22;226;48.606;9.096;2024-01-27T15:33:09;7.00;36.80
480;DHT22;226;48.606;9.096;2024-01-27T15:35:38;6.90;38.00
480;DHT22;226;48.606;9.096;2024-01-27T15:38:07;6.80;38.40
480;DHT22;226;48.606;9.096;2024-01-27T15:40:37;6.80;38.80
480;DHT22;226;48.606;9.096;2024-01-27T15:43:05;6.60;39.20
480;DHT22;226;48.606;9.096;2024-01-27T15:45:34;6.70;39.60
480;DHT22;226;48.606;9.096;2024-01-27T15:48:02;6.60;39.60
480;DHT22;226;48.606;9.096;2024-01-27T15:50:31;6.20;40.00
480;DHT22;226;48.606;9.096;2024-01-27T15:53:00;6.20;41.40
480;DHT22;226;48.606;9.096;2024-01-27T15:55:30;6.00;37.70
480;DHT22;226;48.606;9.096;2024-01-27T15:58:01;5.60;35.20
480;DHT22;226;48.606;9.096;2024-01-27T16:00:29;5.40;36.40
480;DHT22;226;48.606;9.096;2024-01-27T16:02:58;4.30;36.50
480;DHT22;226;48.606;9.096;2024-01-27T16:05:26;5.10;38.50
480;DHT22;226;48.606;9.096;2024-01-27T16:07:54;5.10;38.80
480;DHT22;226;48.606;9.096;2024-01-27T16:10:22;4.80;39.30
480;DHT22;226;48.606;9.096;2024-01-27T16:12:50;4.60;48.10
480;DHT22;226;48.606;9.096;2024-01-27T16:15:19;4.10;50.90
480;DHT22;226;48.606;9.096;2024-01-27T16:17:48;4.10;53.40
480;DHT22;226;48.606;9.096;2024-01-27T16:20:16;3.90;54.20
480;DHT22;226;48.606;9.096;2024-01-27T16:22:44;3.80;55.10
480;DHT22;226;48.606;9.096;2024-01-27T16:25:12;4.00;55.60
480;DHT22;226;48.606;9.096;2024-01-27T16:27:40;3.60;56.40
480;DHT22;226;48.606;9.096;2024-01-27T16:30:10;3.50;57.00
480;DHT22;226;48.606;9.096;2024-01-27T16:32:39;3.30;58.10
480;DHT22;226;48.606;9.096;2024-01-27T16:35:09;3.30;58.90
480;DHT22;226;48.606;9.096;2024-01-27T16:37:37;3.10;59.10
480;DHT22;226;48.606;9.096;2024-01-27T16:40:06;3.00;60.00
480;DHT22;226;48.606;9.096;2024-01-27T16:42:34;3.00;59.90
480;DHT22;226;48.606;9.096;2024-01-27T16:45:05;3.10;59.00
480;DHT22;226;48.606;9.096;2024-01-27T16:47:34;2.70;59.70
480;DHT22;226;48.606;9.096;2024-01-27T16:50:04;2.40;62.70
480;DHT22;226;48.606;9.096;2024-01-27T16:52:32;2.50;65.10
480;DHT22;226;48.606;9.096;2024-01-27T16:55:01;2.70;63.70
480;DHT22;226;48.606;9.096;2024-01-27T16:57:29;2.40;64.00
480;DHT22;226;48.606;9.096;2024-01-27T16:59:58;2.30;65.00
480;DHT22;226;48.606;9.096;2024-01-27T17:02:26;2.10;66.40
480;DHT22;226;48.606;9.096;2024-01-27T17:04:54;2.10;67.40
480;DHT22;226;48.606;9.096;2024-01-27T17:07:30;2.10;67.80
480;DHT22;226;48.606;9.096;2024-01-27T17:10:00;2.10;67.70
480;DHT22;226;48.606;9.096;2024-01-27T17:12:30;2.00;66.90
480;DHT22;226;48.606;9.096;2024-01-27T17:14:59;2.00;67.40
480;DHT22;226;48.606;9.096;2024-01-27T17:17:27;1.90;68.70
480;DHT22;226;48.606;9.096;2024-01-27T17:19:56;1.90;69.60
480;DHT22;226;48.606;9.096;2024-01-27T17:22:25;1.70;70.00
480;DHT22;226;48.606;9.096;2024-01-27T17:24:54;1.70;70.40
480;DHT22;226;48.606;9.096;2024-01-27T17:27:25;2.00;70.70
480;DHT22;226;48.606;9.096;2024-01-27T17:29:54;1.60;83.90
480;DHT22;226;48.606;9.096;2024-01-27T17:32:22;1.50;68.90
480;DHT22;226;48.606;9.096;2024-01-27T17:34:50;1.80;69.00
480;DHT22;226;48.606;9.096;2024-01-27T17:37:18;1.40;69.90
480;DHT22;226;48.606;9.096;2024-01-27T17:39:46;1.40;71.40
480;DHT22;226;48.606;9.096;2024-01-27T17:42:17;1.40;72.00
480;DHT22;226;48.606;9.096;2024-01-27T17:44:46;1.40;72.10
480;DHT22;226;48.606;9.096;2024-01-27T17:47:14;1.50;71.40
480;DHT22;226;48.606;9.096;2024-01-27T17:49:42;1.30;72.10
480;DHT22;226;48.606;9.096;2024-01-27T17:52:11;1.20;73.90
480;DHT22;226;48.606;9.096;2024-01-27T17:54:39;1.10;75.20
480;DHT22;226;48.606;9.096;2024-01-27T17:57:07;1.10;76.70
480;DHT22;226;48.606;9.096;2024-01-27T17:59:38;1.10;76.90
480;DHT22;226;48.606;9.096;2024-01-27T18:02:07;1.10;77.60
480;DHT22;226;48.606;9.096;2024-01-27T18:04:35;1.30;76.80
480;DHT22;226;48.606;9.096;2024-01-27T18:07:03;1.10;76.10
480;DHT22;226;48.606;9.096;2024-01-27T18:09:32;1.00;75.50
480;DHT22;226;48.606;9.096;2024-01-27T18:12:00;1.10;75.70
480;DHT22;226;48.606;9.096;2024-01-27T18:14:30;1.00;75.90
480;DHT22;226;48.606;9.096;2024-01-27T18:16:59;1.10;76.30
480;DHT22;226;48.606;9.096;2024-01-27T18:19:27;0.80;76.90
480;DHT22;226;48.606;9.096;2024-01-27T18:21:55;0.80;76.70
480;DHT22;226;48.606;9.096;2024-01-27T18:24:25;0.80;77.20
480;DHT22;226;48.606;9.096;2024-01-27T18:26:53;0.70;77.40
480;DHT22;226;48.606;9.096;2024-01-27T18:29:21;1.00;77.40
480;DHT22;226;48.606;9.096;2024-01-27T18:31:50;0.90;78.20
480;DHT22;226;48.606;9.096;2024-01-27T18:34:20;0.70;77.80
480;DHT22;226;48.606;9.096;2024-01-27T18:36:48;0.80;78.00
480;DHT22;226;48.606;9.096;2024-01-27T18:39:16;0.90;77.20
480;DHT22;226;48.606;9.096;2024-01-27T18:41:46;0.80;75.70
480;DHT22;226;48.606;9.096;2024-01-27T18:44:15;0.70;74.80
480;DHT22;226;48.606;9.096;2024-01-27T18:46:44;0.60;75.90
480;DHT22;226;48.606;9.096;2024-01-27T18:49:14;0.50;76.50
480;DHT22;226;48.606;9.096;2024-01-27T18:51:45;0.60;76.60
480;DHT22;226;48.606;9.096;2024-01-27T18:54:15;0.40;77.60
480;DHT22;226;48.606;9.096;2024-01-27T18:56:45;0.40;78.00
480;DHT22;226;48.606;9.096;2024-01-27T18:59:14;0.40;78.50
480;DHT22;226;48.606;9.096;2024-01-27T19:01:43;0.50;77.50
480;DHT22;226;48.606;9.096;2024-01-27T19:04:11;0.50;78.70
480;DHT22;226;48.606;9.096;2024-01-27T19:06:40;0.40;80.20
480;DHT22;226;48.606;9.096;2024-01-27T19:09:10;0.30;79.20
480;DHT22;226;48.606;9.096;2024-01-27T19:11:40;0.30;79.90
480;DHT22;226;48.606;9.096;2024-01-27T19:14:09;0.70;81.10
480;DHT22;226;48.606;9.096;2024-01-27T19:16:39;0.30;80.70
480;DHT22;226;48.606;9.096;2024-01-27T19:19:08;0.20;80.90
480;DHT22;226;48.606;9.096;2024-01-27T19:21:42;0.20;80.90
480;DHT22;226;48.606;9.096;2024-01-27T19:24:12;0.60;80.20
480;DHT22;226;48.606;9.096;2024-01-27T19:26:40;0.10;79.50
480;DHT22;226;48.606;9.096;2024-01-27T19:29:10;0.10;80.30
480;DHT22;226;48.606;9.096;2024-01-27T19:31:38;0.30;80.00
480;DHT22;226;48.606;9.096;2024-01-27T19:34:06;0.10;80.10
480;DHT22;226;48.606;9.096;2024-01-27T19:36:35;0.10;79.20
480;DHT22;226;48.606;9.096;2024-01-27T19:39:03;0.10;79.20
480;DHT22;226;48.606;9.096;2024-01-27T19:41:33;0.20;78.70
480;DHT22;226;48.606;9.096;2024-01-27T19:44:01;0.40;78.20
480;DHT22;226;48.606;9.096;2024-01-27T19:46:29;0.70;78.60
480;DHT22;226;48.606;9.096;2024-01-27T19:48:57;0.10;78.60
480;DHT22;226;48.606;9.096;2024-01-27T19:51:26;0.10;78.90
480;DHT22;226;48.606;9.096;2024-01-27T19:53:54;0.10;78.30
480;DHT22;226;48.606;9.096;2024-01-27T19:56:22;0.10;79.10
480;DHT22;226;48.606;9.096;2024-01-27T19:58:52;0.50;78.10
480;DHT22;226;48.606;9.096;2024-01-27T20:01:20;0.00;78.70
480;DHT22;226;48.606;9.096;2024-01-27T20:03:48;0.10;76.60
480;DHT22;226;48.606;9.096;2024-01-27T20:06:16;0.10;76.90
480;DHT22;226;48.606;9.096;2024-01-27T20:08:44;0.00;77.60
480;DHT22;226;48.606;9.096;2024-01-27T20:11:12;0.00;78.60
480;DHT22;226;48.606;9.096;2024-01-27T20:13:41;0.00;76.30
480;DHT22;226;48.606;9.096;2024-01-27T20:16:11;-0.10;78.10
480;DHT22;226;48.606;9.096;2024-01-27T20:18:40;-0.20;79.40
480;DHT22;226;48.606;9.096;2024-01-27T20:21:09;0.00;80.20
480;DHT22;226;48.606;9.096;2024-01-27T20:23:37;-0.20;80.90
480;DHT22;226;48.606;9.096;2024-01-27T20:26:06;-0.40;79.80
480;DHT22;226;48.606;9.096;2024-01-27T20:28:34;0.00;80.10
480;DHT22;226;48.606;9.096;2024-01-27T20:31:02;-0.30;79.90
480;DHT22;226;48.606;9.096;2024-01-27T20:33:32;-0.40;78.50
480;DHT22;226;48.606;9.096;2024-01-27T20:36:14;-0.20;79.10
480;DHT22;226;48.606;9.096;2024-01-27T20:38:43;-0.50;78.70
480;DHT22;226;48.606;9.096;2024-01-27T20:41:11;-0.40;79.20
480;DHT22;226;48.606;9.096;2024-01-27T20:43:39;-0.50;78.70
480;DHT22;226;48.606;9.096;2024-01-27T20:46:08;-0.40;79.60
480;DHT22;226;48.606;9.096;2024-01-27T20:48:37;-0.40;78.70
480;DHT22;226;48.606;9.096;2024-01-27T20:51:06;-0.20;78.40
480;DHT22;226;48.606;9.096;2024-01-27T20:53:35;-0.10;78.00
480;DHT22;226;48.606;9.096;2024-01-27T20:56:04;-0.20;78.30
480;DHT22;226;48.606;9.096;2024-01-27T20:58:32;-0.10;78.50
480;DHT22;226;48.606;9.096;2024-01-27T21:01:03;0.00;78.70
480;DHT22;226;48.606;9.096;2024-01-27T21:03:32;-0.30;78.70
480;DHT22;226;48.606;9.096;2024-01-27T21:06:02;-0.30;77.10
480;DHT22;226;48.606;9.096;2024-01-27T21:08:30;-0.40;77.90
480;DHT22;226;48.606;9.096;2024-01-27T21:10:58;-0.30;77.30
480;DHT22;226;48.606;9.096;2024-01-27T21:13:30;-0.50;77.10
480;DHT22;226;48.606;9.096;2024-01-27T21:15:58;-0.40;78.10
480;DHT22;226;48.606;9.096;2024-01-27T21:18:26;-0.40;75.80
480;DHT22;226;48.606;9.096;2024-01-27T21:20:55;-0.40;75.30
480;DHT22;226;48.606;9.096;2024-01-27T21:23:27;-0.40;74.20
480;DHT22;226;48.606;9.096;2024-01-27T21:25:55;-0.50;73.70
480;DHT22;226;48.606;9.096;2024-01-27T21:28:24;-0.60;72.80
480;DHT22;226;48.606;9.096;2024-01-27T21:30:52;-0.50;74.40
480;DHT22;226;48.606;9.096;2024-01-27T21:33:21;-0.40;75.60
480;DHT22;226;48.606;9.096;2024-01-27T21:35:49;-0.80;75.60
480;DHT22;226;48.606;9.096;2024-01-27T21:38:17;-0.70;76.30
480;DHT22;226;48.606;9.096;2024-01-27T21:40:46;-0.40;78.60
480;DHT22;226;48.606;9.096;2024-01-27T21:43:15;-0.50;77.50
480;DHT22;226;48.606;9.096;2024-01-27T21:45:43;-0.60;76.90
480;DHT22;226;48.606;9.096;2024-01-27T21:48:11;-0.70;75.60
480;DHT22;226;48.606;9.096;2024-01-27T21:50:39;0.00;75.80
480;DHT22;226;48.606;9.096;2024-01-27T21:53:08;-0.50;74.50
480;DHT22;226;48.606;9.096;2024-01-27T21:55:36;-0.70;74.30
480;DHT22;226;48.606;9.096;2024-01-27T21:58:06;-0.60;72.50
480;DHT22;226;48.606;9.096;2024-01-27T22:00:34;-0.20;75.30
480;DHT22;226;48.606;9.096;2024-01-27T22:03:02;-0.70;74.20
480;DHT22;226;48.606;9.096;2024-01-27T22:05:32;-0.50;73.30
480;DHT22;226;48.606;9.096;2024-01-27T22:08:01;-0.60;72.30
480;DHT22;226;48.606;9.096;2024-01-27T22:10:31;-0.70;72.30
480;DHT22;226;48.606;9.096;2024-01-27T22:12:59;-0.60;72.30
480;DHT22;226;48.606;9.096;2024-01-27T22:15:29;-0.50;73.40
480;DHT22;226;48.606;9.096;2024-01-27T22:17:57;-0.60;73.80
480;DHT22;226;48.606;9.096;2024-01-27T22:20:25;-0.70;73.50
480;DHT22;226;48.606;9.096;2024-01-27T22:22:53;-0.90;74.60
480;DHT22;226;48.606;9.096;2024-01-27T22:25:21;-0.70;75.00
480;DHT22;226;48.606;9.096;2024-01-27T22:27:50;-0.70;73.90
480;DHT22;226;48.606;9.096;2024-01-27T22:30:18;0.20;73.50
480;DHT22;226;48.606;9.096;2024-01-27T22:32:47;-0.70;73.40
480;DHT22;226;48.606;9.096;2024-01-27T22:35:16;0.20;74.60
480;DHT22;226;48.606;9.096;2024-01-27T22:37:44;-0.50;74.60
480;DHT22;226;48.606;9.096;2024-01-27T22:40:13;-0.60;73.80
480;DHT22;226;48.606;9.096;2024-01-27T22:42:41;-0.60;73.90
480;DHT22;226;48.606;9.096;2024-01-27T22:45:10;-0.10;75.30
480;DHT22;226;48.606;9.096;2024-01-27T22:47:38;-0.50;73.10
480;DHT22;226;48.606;9.096;2024-01-27T22:50:08;-0.30;73.20
480;DHT22;226;48.606;9.096;2024-01-27T22:52:38;-0.60;72.90
480;DHT22;226;48.606;9.096;2024-01-27T22:55:07;-0.60;73.00
480;DHT22;226;48.606;9.096;2024-01-27T22:57:35;-0.50;73.30
480;DHT22;226;48.606;9.096;2024-01-27T23:00:05;-0.10;73.90
480;DHT22;226;48.606;9.096;2024-01-27T23:02:45;-0.40;72.40
480;DHT22;226;48.606;9.096;2024-01-27T23:05:15;-0.30;72.70
480;DHT22;226;48.606;9.096;2024-01-27T23:07:44;-0.40;72.60
480;DHT22;226;48.606;9.096;2024-01-27T23:10:13;-0.60;73.00
480;DHT22;226;48.606;9.096;2024-01-27T23:12:41;-0.50;71.20
480;DHT22;226;48.606;9.096;2024-01-27T23:15:09;-0.50;72.50
480;DHT22;226;48.606;9.096;2024-01-27T23:17:37;-0.40;72.80
480;DHT22;226;48.606;9.096;2024-01-27T23:20:07;-0.30;71.60
480;DHT22;226;48.606;9.096;2024-01-27T23:22:36;-0.40;71.20
480;DHT22;226;48.606;9.096;2024-01-27T23:25:05;-0.30;71.50
480;DHT22;226;48.606;9.096;2024-01-27T23:27:34;-0.30;71.80
480;DHT22;226;48.606;9.096;2024-01-27T23:30:04;-0.20;71.70
480;DHT22;226;48.606;9.096;2024-01-27T23:32:34;-0.30;71.50
480;DHT22;226;48.606;9.096;2024-01-27T23:35:02;-0.30;71.50
480;DHT22;226;48.606;9.096;2024-01-27T23:37:30;-0.20;71.40
480;DHT22;226;48.606;9.096;2024-01-27T23:40:00;-0.40;71.10
480;DHT22;226;48.606;9.096;2024-01-27T23:42:28;-0.30;72.80
480;DHT22;226;48.606;9.096;2024-01-27T23:44:57;-0.20;72.60
480;DHT22;226;48.606;9.096;2024-01-27T23:47:25;-0.30;72.50
480;DHT22;226;48.606;9.096;2024-01-27T23:49:53;-0.30;73.00
480;DHT22;226;48.606;9.096;2024-01-27T23:52:22;-0.20;72.60
480;DHT22;226;48.606;9.096;2024-01-27T23:54:52;-0.30;72.80
480;DHT22;226;48.606;9.096;2024-01-27T23:57:21;-0.20;71.90
480;DHT22;226;48.606;9.096;2024-01-27T23:59:50;-0.10;70.80
